KBFD/BFD METAR and TAF weather

Enter ICAO airport designator
Station Type Date Time Source
KBFD METAR 2021/01/17 18:53 UTC NOAA

KBFD 171853Z AUTO 25005KT 8SM BKN012 OVC019 01/M03 A2957 RMK AO2 SLP030 T00061033


Station Type Date Time Source
KBFD Decoded METAR 2021/01/17 18:53 UTC NOAA

BRADFORD REGIONAL AIRPORT, PA, United States (KBFD) 41-48N 078-38W 647M
Jan 17, 2021 - 01:53 PM EST / 2021.01.17 1853 UTC
Wind: from the WSW (250 degrees) at 6 MPH (5 KT):0
Visibility: 8 mile(s):0
Sky conditions: overcast
Temperature: 33.1 F (0.6 C)
Windchill: 28 F (-2 C):1
Dew Point: 26.1 F (-3.3 C)
Relative Humidity: 75%
Pressure (altimeter): 29.57 in. Hg (1001 hPa)
ob: KBFD 171853Z AUTO 25005KT 8SM BKN012 OVC019 01/M03 A2957 RMK AO2 SLP030 T00061033
cycle: 19

Station Type Date Time Source
KBFD TAF 2021/01/17 18:36 UTC NOAA

TAF KBFD 171735Z 1718/1818 26009KT P6SM OVC011
FM172100 25005KT 4SM -SN OVC015
FM180000 25004KT 2SM -SHSN OVC009
FM180600 25004KT 4SM -SN OVC009

Example: see airport list